Time;durP1;ratioP1;P1;durP2;ratioP2;P2;SDS_P1;SDS_P2;PMS_P1;PMS_P2;Temp;Humidity;BMP_temperature;BMP_pressure;BME280_temperature;BME280_humidity;BME280_pressure;Samples;Min_cycle;Max_cycle;Signal;HPM_P1;HPM_P2
2022/04/20 00:02:21;;;;;;;6.10;5.50;;;;;;;2.22;73.70;100148.16;10233952;28;20058;-80
2022/04/20 00:07:22;;;;;;;7.15;6.55;;;;;;;2.36;73.72;100154.25;10264562;28;20103;-79
2022/04/20 00:12:24;;;;;;;6.22;5.72;;;;;;;2.46;72.61;100155.13;10266237;28;20071;-80
2022/04/20 00:17:26;;;;;;;6.60;6.05;;;;;;;2.35;73.31;100152.53;10262370;29;20136;-79
2022/04/20 00:22:27;;;;;;;6.00;5.50;;;;;;;2.35;72.75;100160.31;10266251;28;20043;-78
2022/04/20 00:27:33;;;;;;;6.32;5.63;;;;;;;1.89;74.72;100161.81;10266186;28;20079;-79
2022/04/20 00:32:35;;;;;;;6.18;5.60;;;;;;;1.87;75.13;100167.00;10265352;28;20032;-78
2022/04/20 00:37:39;;;;;;;6.70;5.80;;;;;;;1.88;75.49;100166.13;10262474;29;20063;-79
2022/04/20 00:42:41;;;;;;;6.30;5.70;;;;;;;1.84;75.83;100168.69;10262967;29;20059;-80
2022/04/20 00:47:43;;;;;;;7.28;6.65;;;;;;;1.89;76.16;100173.03;10245019;29;20043;-79
2022/04/20 00:52:49;;;;;;;7.07;6.47;;;;;;;1.93;75.45;100174.81;10258052;29;20065;-80
2022/04/20 00:58:06;;;;;;;6.50;5.95;;;;;;;2.02;74.54;100174.84;10258938;29;20058;-79
2022/04/20 01:03:11;;;;;;;7.32;6.65;;;;;;;2.24;72.99;100170.63;10251355;29;20047;-78
2022/04/20 01:08:33;;;;;;;7.18;6.50;;;;;;;1.82;74.92;100173.88;10248940;29;20051;-80
2022/04/20 01:13:54;;;;;;;6.32;5.72;;;;;;;1.64;75.78;100172.06;10248104;29;20048;-79
2022/04/20 01:19:14;;;;;;;6.70;6.20;;;;;;;1.75;75.15;100169.50;10240958;29;20051;-80
2022/04/20 01:24:45;;;;;;;8.32;7.53;;;;;;;1.47;76.63;100169.34;10238704;29;20072;-80
2022/04/20 01:29:57;;;;;;;7.20;6.50;;;;;;;1.35;77.32;100176.16;10229079;28;20030;-80
2022/04/20 01:35:13;;;;;;;7.65;6.95;;;;;;;1.49;77.18;100170.19;10255201;28;20067;-79
2022/04/20 01:40:15;;;;;;;7.32;6.72;;;;;;;1.45;76.68;100155.50;10229173;29;20058;-79
2022/04/20 01:45:18;;;;;;;7.63;6.93;;;;;;;1.34;76.98;100154.56;10245584;23;20052;-79
2022/04/20 01:50:32;;;;;;;6.72;6.13;;;;;;;1.35;77.09;100145.94;10213010;29;20106;-79
2022/04/20 01:55:51;;;;;;;7.57;6.97;;;;;;;1.38;77.36;100148.56;10227511;29;20067;-80
2022/04/20 02:01:01;;;;;;;7.65;6.95;;;;;;;1.38;77.41;100150.28;10212203;29;20043;-80
2022/04/20 02:06:23;;;;;;;6.70;6.10;;;;;;;1.43;77.45;100138.22;10213728;29;20051;-79
2022/04/20 02:11:36;;;;;;;7.60;6.05;;;;;;;1.72;74.88;100128.88;10218105;29;20118;-80
2022/04/20 02:16:48;;;;;;;6.90;6.30;;;;;;;1.29;76.29;100132.94;10226772;29;20084;-80
2022/04/20 02:22:08;;;;;;;7.35;6.75;;;;;;;1.00;78.23;100124.94;10242206;29;20055;-80
2022/04/20 02:27:10;;;;;;;6.75;6.25;;;;;;;1.04;77.70;100120.66;10247467;29;20054;-81
2022/04/20 02:32:11;;;;;;;7.38;6.85;;;;;;;1.04;77.82;100125.84;10226012;29;20052;-82
2022/04/20 02:37:13;;;;;;;7.65;7.05;;;;;;;0.93;78.74;100133.50;10264485;29;20080;-82
2022/04/20 02:42:16;;;;;;;8.50;7.80;;;;;;;0.98;78.92;100132.72;10242576;29;20105;-82
2022/04/20 02:47:17;;;;;;;8.23;7.53;;;;;;;1.10;78.21;100118.97;10238270;29;20024;-81
2022/04/20 02:52:19;;;;;;;7.55;6.78;;;;;;;1.35;76.31;100116.56;10230703;29;20099;-82
2022/04/20 02:57:21;;;;;;;8.63;7.70;;;;;;;1.08;77.06;100123.28;10221010;29;20050;-81
2022/04/20 03:02:26;;;;;;;7.78;7.07;;;;;;;0.78;78.63;100126.47;10235865;29;20039;-81
2022/04/20 03:07:28;;;;;;;8.70;8.00;;;;;;;0.75;79.23;100127.34;10204224;29;20048;-82
2022/04/20 03:12:30;;;;;;;12.07;10.88;;;;;;;1.01;78.68;100130.13;10214691;29;20115;-82
2022/04/20 03:17:32;;;;;;;10.60;9.60;;;;;;;1.04;77.95;100136.19;10215681;29;20417;-82
2022/04/20 03:22:34;;;;;;;10.07;9.27;;;;;;;0.97;77.65;100130.97;10230054;29;20036;-81
2022/04/20 03:27:35;;;;;;;9.65;8.75;;;;;;;0.73;78.80;100141.09;10211331;29;20125;-81
2022/04/20 03:32:39;;;;;;;9.00;8.20;;;;;;;0.76;78.65;100146.31;10211196;29;20544;-81
2022/04/20 03:37:40;;;;;;;10.40;9.50;;;;;;;0.74;78.48;100138.50;10211900;29;20052;-82
2022/04/20 03:42:42;;;;;;;9.00;8.30;;;;;;;0.88;77.57;100133.47;10213511;29;20100;-81
2022/04/20 03:47:44;;;;;;;9.70;8.70;;;;;;;0.67;78.75;100141.03;10229160;29;20042;-81
2022/04/20 03:52:51;;;;;;;10.20;9.30;;;;;;;0.47;80.07;100140.81;10212906;29;20078;-81
2022/04/20 03:57:53;;;;;;;9.48;8.77;;;;;;;0.45;80.35;100143.41;10213427;29;20047;-81
2022/04/20 04:02:55;;;;;;;9.43;8.63;;;;;;;0.73;78.83;100139.38;10217018;29;20051;-81
2022/04/20 04:08:05;;;;;;;8.82;7.93;;;;;;;0.65;79.52;100150.50;10212804;29;20056;-81
2022/04/20 04:13:08;;;;;;;9.68;8.75;;;;;;;0.72;80.20;100139.38;10227055;29;20051;-81
2022/04/20 04:18:12;;;;;;;10.30;9.18;;;;;;;1.23;78.18;100143.25;10244647;29;20111;-80
2022/04/20 04:23:19;;;;;;;12.03;10.90;;;;;;;1.20;78.14;100145.81;10229959;29;20071;-81
2022/04/20 04:28:34;;;;;;;10.50;9.50;;;;;;;1.08;79.67;100151.75;10230717;29;20120;-81
2022/04/20 04:33:36;;;;;;;11.07;10.18;;;;;;;1.04;78.76;100150.00;10229120;29;20031;-79
2022/04/20 04:38:39;;;;;;;10.32;9.43;;;;;;;1.09;78.93;100156.09;10248218;29;20111;-80
2022/04/20 04:43:42;;;;;;;11.32;10.43;;;;;;;1.11;78.85;100156.13;10225747;29;20040;-80
2022/04/20 04:48:48;;;;;;;11.32;10.18;;;;;;;1.14;78.54;100158.72;10242225;29;20067;-79
2022/04/20 04:53:50;;;;;;;9.63;8.90;;;;;;;1.24;79.04;100158.81;10229858;29;20048;-80
2022/04/20 04:59:09;;;;;;;10.80;9.90;;;;;;;1.31;78.67;100143.31;10248338;29;20040;-81
2022/04/20 05:04:11;;;;;;;10.70;9.80;;;;;;;1.37;78.74;100151.97;10243237;29;20039;-81
2022/04/20 05:09:14;;;;;;;10.00;9.20;;;;;;;1.69;77.96;100162.56;10236292;29;20152;-79
2022/04/20 05:14:19;;;;;;;10.00;9.15;;;;;;;2.04;75.86;100156.72;10234075;29;20057;-79
2022/04/20 05:19:25;;;;;;;10.65;9.75;;;;;;;2.00;75.55;100155.84;10239171;29;20138;-79
2022/04/20 05:24:30;;;;;;;9.80;8.93;;;;;;;2.15;75.06;100146.38;10227386;29;20032;-81
2022/04/20 05:29:32;;;;;;;9.55;8.60;;;;;;;2.31;74.01;100145.59;10226838;29;20044;-83
2022/04/20 05:34:39;;;;;;;;;;;;;;;2.67;72.96;100144.81;10243773;29;20055;-79
2022/04/20 05:45:03;;;;;;;9.98;8.98;;;;;;;2.80;72.89;100147.44;10226137;29;20411;-80
2022/04/20 05:50:06;;;;;;;9.55;8.73;;;;;;;2.98;71.78;100150.06;10225407;29;20047;-80
2022/04/20 05:55:09;;;;;;;14.18;8.85;;;;;;;3.15;71.23;100144.88;10240523;29;20103;-79
2022/04/20 06:00:13;;;;;;;10.40;9.52;;;;;;;3.42;70.25;100147.47;10205138;29;20067;-82
2022/04/20 06:05:23;;;;;;;10.25;9.43;;;;;;;3.68;68.73;100150.03;10214322;29;20064;-81
2022/04/20 06:10:46;;;;;;;9.95;8.75;;;;;;;3.88;67.41;100144.75;10232087;29;20055;-81
2022/04/20 06:15:54;;;;;;;14.00;10.13;;;;;;;3.84;67.59;100139.56;10197512;29;20040;-82
2022/04/20 06:21:09;;;;;;;10.65;9.20;;;;;;;3.96;66.76;100135.19;10218792;29;20079;-82
2022/04/20 06:26:19;;;;;;;10.90;9.90;;;;;;;3.61;69.15;100139.63;10221962;29;20076;-82
2022/04/20 06:31:39;;;;;;;10.35;8.98;;;;;;;3.80;69.23;100143.91;10245620;29;20091;-83
2022/04/20 06:37:08;;;;;;;12.43;9.25;;;;;;;4.04;68.17;100135.19;10243604;29;20055;-83
2022/04/20 06:42:26;;;;;;;10.57;9.57;;;;;;;4.21;67.93;100130.78;10263195;29;20059;-84
2022/04/20 06:47:59;;;;;;;9.93;9.02;;;;;;;4.43;66.58;100130.69;10246626;29;20043;-83
2022/04/20 06:58:41;;;;;;;10.07;9.25;;;;;;;4.51;66.82;100123.66;10245863;29;20083;-85
2022/04/20 07:03:50;;;;;;;12.40;9.85;;;;;;;4.29;67.68;100131.63;10228532;29;20051;-83
2022/04/20 07:09:10;;;;;;;11.88;9.80;;;;;;;4.38;67.97;100130.69;10247492;29;20051;-83
2022/04/20 07:14:30;;;;;;;10.70;9.70;;;;;;;4.35;67.67;100132.47;10226197;29;20454;-83
2022/04/20 07:19:32;;;;;;;15.45;9.27;;;;;;;4.38;67.60;100128.06;10226744;29;20103;-82
2022/04/20 07:24:52;;;;;;;10.50;9.50;;;;;;;4.75;66.55;100117.47;10249183;29;20046;-83
2022/04/20 07:30:12;;;;;;;13.35;10.05;;;;;;;5.05;65.81;100108.56;10224770;29;20047;-83
2022/04/20 07:35:46;;;;;;;13.07;9.73;;;;;;;4.98;66.23;100104.25;10184566;29;20111;-83
2022/04/20 07:41:21;;;;;;;10.55;9.65;;;;;;;4.94;66.92;100105.16;10221020;29;20424;-84
2022/04/20 07:46:58;;;;;;;8.43;7.72;;;;;;;5.66;65.79;100094.94;10182633;23;20056;-74
2022/04/20 07:52:20;;;;;;;10.20;9.25;;;;;;;5.64;64.99;100090.63;10182340;29;20056;-74
2022/04/20 07:57:42;;;;;;;15.65;9.75;;;;;;;6.18;63.42;100078.69;10219959;29;20397;-74
2022/04/20 08:03:12;;;;;;;10.63;9.43;;;;;;;6.57;62.46;100076.41;10219260;29;20481;-74
2022/04/20 08:08:16;;;;;;;10.60;9.60;;;;;;;6.49;62.01;100075.66;10219608;29;20450;-74
2022/04/20 08:18:49;;;;;;;10.18;9.38;;;;;;;7.36;60.28;100061.19;10221180;29;20047;-73
2022/04/20 08:24:15;;;;;;;10.90;9.17;;;;;;;7.36;59.25;100070.78;10221685;29;20047;-74
2022/04/20 08:29:16;;;;;;;10.05;9.07;;;;;;;7.84;58.47;100058.50;10221140;29;20047;-74
2022/04/20 08:34:18;;;;;;;11.80;8.60;;;;;;;7.69;57.69;100070.13;10217912;29;20047;-75
2022/04/20 08:39:20;;;;;;;9.02;7.38;;;;;;;7.79;56.30;100068.19;10210832;29;20054;-74
2022/04/20 08:44:28;;;;;;;9.60;8.25;;;;;;;8.02;57.66;100067.75;10219846;29;20051;-74
2022/04/20 08:49:30;;;;;;;24.80;7.32;;;;;;;8.42;54.39;100059.06;10219542;29;20067;-74
2022/04/20 08:54:32;;;;;;;8.52;7.82;;;;;;;8.33;56.54;100066.19;10234246;29;20051;-74
2022/04/20 08:59:35;;;;;;;8.75;8.02;;;;;;;8.23;57.67;100069.03;10256805;29;20050;-75
2022/04/20 09:04:37;;;;;;;10.85;9.07;;;;;;;8.75;57.78;100054.78;10244384;29;20043;-75
2022/04/20 09:09:39;;;;;;;10.25;9.35;;;;;;;8.93;56.42;100043.84;10247617;29;20540;-75
2022/04/20 09:14:43;;;;;;;9.50;8.70;;;;;;;8.86;56.30;100037.03;10260576;29;20382;-76
2022/04/20 09:19:53;;;;;;;6.57;5.95;;;;;;;8.90;53.98;100033.44;10257754;29;20130;-75
2022/04/20 09:24:59;;;;;;;5.57;5.03;;;;;;;8.98;50.14;100047.19;10249081;29;20107;-74
2022/04/20 09:30:01;;;;;;;6.38;5.20;;;;;;;8.82;52.47;100053.75;10217932;29;20048;-74
2022/04/20 09:35:06;;;;;;;5.43;4.90;;;;;;;8.88;51.68;100053.59;10200967;29;20437;-74
2022/04/20 09:40:13;;;;;;;7.25;6.55;;;;;;;8.75;53.89;100047.78;10216446;29;20043;-74
2022/04/20 09:45:19;;;;;;;;;;;;;;;8.84;51.75;100044.06;10217620;29;20043;-74
2022/04/20 09:50:25;;;;;;;6.45;5.38;;;;;;;9.02;51.53;100034.88;10217123;29;19923;-74
2022/04/20 09:55:32;;;;;;;7.13;5.50;;;;;;;8.85;52.71;100043.16;10199407;29;20052;-75
2022/04/20 10:00:38;;;;;;;6.00;4.97;;;;;;;8.69;51.93;100049.69;10216726;29;20095;-74
2022/04/20 10:05:39;;;;;;;5.82;5.22;;;;;;;8.71;52.48;100043.50;10222787;29;20116;-73
2022/04/20 10:10:42;;;;;;;5.82;4.93;;;;;;;8.74;51.49;100035.56;10206827;29;20510;-74
2022/04/20 10:21:11;;;;;;;5.32;4.82;;;;;;;8.80;52.17;100034.56;10223738;29;20056;-73
2022/04/20 10:26:14;;;;;;;6.45;5.93;;;;;;;8.52;53.02;100029.13;10223417;29;20044;-74
2022/04/20 10:31:31;;;;;;;6.25;5.65;;;;;;;8.46;53.98;100030.13;10223511;29;20051;-74
2022/04/20 10:36:37;;;;;;;8.15;5.72;;;;;;;8.43;54.56;100029.34;10222267;29;20139;-74
2022/04/20 10:42:10;;;;;;;7.80;6.47;;;;;;;8.33;56.96;100032.13;10222975;29;20040;-74
2022/04/20 10:47:19;;;;;;;8.25;5.65;;;;;;;7.99;58.72;100029.38;10205354;29;20050;-75
2022/04/20 10:52:25;;;;;;;6.85;5.93;;;;;;;7.88;59.80;100031.38;10222550;29;20051;-73
2022/04/20 10:57:37;;;;;;;7.30;5.43;;;;;;;7.91;60.13;100036.53;10205751;29;20043;-74
2022/04/20 11:03:00;;;;;;;9.48;7.78;;;;;;;7.83;63.33;100033.22;10221462;29;20059;-73
2022/04/20 11:08:04;;;;;;;8.10;7.50;;;;;;;7.86;65.96;100040.16;10220365;29;20126;-73
2022/04/20 11:19:32;;;;;;;7.95;7.25;;;;;;;8.01;69.15;100030.22;10221418;29;20051;-73
2022/04/20 11:24:42;;;;;;;8.52;6.90;;;;;;;7.95;70.95;100027.72;10068348;29;20060;-71
2022/04/20 11:29:44;;;;;;;7.07;6.43;;;;;;;7.95;70.79;100026.88;10099388;29;20100;-71
2022/04/20 11:34:46;;;;;;;7.38;6.78;;;;;;;8.18;69.83;100029.00;10099357;29;20080;-73
2022/04/20 11:39:48;;;;;;;7.80;7.20;;;;;;;8.16;71.23;100022.94;10099022;29;20057;-71
2022/04/20 11:44:50;;;;;;;7.93;7.20;;;;;;;7.99;71.63;100018.91;10100121;29;20084;-72
2022/04/20 11:49:58;;;;;;;12.68;7.03;;;;;;;8.03;73.75;100014.47;10099797;29;20060;-72
2022/04/20 11:55:17;;;;;;;8.73;7.50;;;;;;;8.50;72.86;100005.59;10206473;29;20069;-72
2022/04/20 12:00:21;;;;;;;8.13;7.53;;;;;;;8.61;73.26;99997.47;10238570;29;20113;-72
2022/04/20 12:05:23;;;;;;;8.98;8.15;;;;;;;8.73;73.51;99997.16;10243574;29;20067;-71
2022/04/20 12:10:24;;;;;;;8.00;7.30;;;;;;;8.87;71.01;99994.19;10219361;29;20051;-71
2022/04/20 12:15:26;;;;;;;9.02;7.18;;;;;;;8.90;72.36;99990.63;10218518;29;20054;-71
2022/04/20 12:20:30;;;;;;;9.55;8.23;;;;;;;8.85;72.01;99985.50;10217620;29;20052;-72
2022/04/20 12:25:32;;;;;;;9.45;8.18;;;;;;;8.42;74.51;99977.84;10200539;29;20494;-72
2022/04/20 12:30:35;;;;;;;8.70;8.15;;;;;;;8.50;74.93;99982.00;10217898;29;20055;-71
2022/04/20 12:35:37;;;;;;;7.90;7.40;;;;;;;8.74;73.75;99977.91;10217975;29;20499;-71
2022/04/20 12:40:56;;;;;;;8.48;7.68;;;;;;;8.74;72.86;99980.53;10216749;29;20047;-71
2022/04/20 12:46:14;;;;;;;7.75;7.15;;;;;;;8.68;73.13;99970.22;10217617;29;20039;-73
2022/04/20 12:51:23;;;;;;;7.20;6.70;;;;;;;8.68;72.98;99953.66;10217931;29;20375;-72
2022/04/20 13:02:03;;;;;;;7.75;7.22;;;;;;;8.45;73.92;99951.56;10177737;29;20090;-72
2022/04/20 13:07:05;;;;;;;7.40;6.80;;;;;;;8.35;75.22;99959.63;10216971;29;20054;-73
2022/04/20 13:12:07;;;;;;;9.35;8.55;;;;;;;8.24;78.01;99961.66;10217430;29;20047;-72
2022/04/20 13:17:09;;;;;;;9.52;8.73;;;;;;;8.44;78.43;99955.09;10216520;29;20054;-72
2022/04/20 13:22:11;;;;;;;9.10;8.23;;;;;;;8.50;78.95;99953.19;10215450;29;20059;-71
2022/04/20 13:32:33;;;;;;;9.48;8.57;;;;;;;8.51;78.79;99933.09;10215837;29;20050;-71
2022/04/20 13:37:34;;;;;;;8.38;7.68;;;;;;;8.61;78.62;99925.88;10218917;29;20051;-72
2022/04/20 13:42:37;;;;;;;9.02;8.35;;;;;;;8.50;79.31;99924.38;10222723;29;20110;-71
2022/04/20 13:47:39;;;;;;;8.65;7.82;;;;;;;8.45;80.61;99928.84;10222948;29;20051;-73
2022/04/20 13:52:41;;;;;;;10.40;9.43;;;;;;;8.39;82.06;99933.41;10224736;29;20044;-72
2022/04/20 13:57:42;;;;;;;9.88;9.05;;;;;;;8.34;81.90;99929.09;10224591;29;20046;-72
2022/04/20 14:02:44;;;;;;;9.90;9.13;;;;;;;8.23;82.55;99920.63;10224509;29;20055;-72
2022/04/20 14:07:46;;;;;;;10.18;9.38;;;;;;;8.37;83.75;99925.59;10226460;29;20052;-72
2022/04/20 14:12:47;;;;;;;9.45;8.75;;;;;;;8.64;82.93;99923.19;10223686;29;20039;-72
2022/04/20 14:17:49;;;;;;;11.38;9.20;;;;;;;8.47;84.32;99926.22;10222960;29;20051;-72
2022/04/20 14:22:51;;;;;;;8.02;7.32;;;;;;;8.42;81.69;99931.56;10222582;29;20048;-72
2022/04/20 14:33:13;;;;;;;7.65;7.03;;;;;;;8.06;83.10;99920.19;10223430;29;20131;-73
2022/04/20 14:38:15;;;;;;;6.72;6.15;;;;;;;8.03;83.41;99909.78;10223173;29;20375;-71
2022/04/20 14:43:17;;;;;;;7.88;7.07;;;;;;;8.12;83.10;99909.56;10221643;29;20108;-72
2022/04/20 14:48:19;;;;;;;7.63;6.93;;;;;;;8.01;84.98;99901.97;10221996;29;20118;-73
2022/04/20 14:53:21;;;;;;;7.93;6.28;;;;;;;7.91;85.65;99902.19;10222013;29;20107;-73
2022/04/20 14:58:23;;;;;;;6.97;6.43;;;;;;;8.08;86.19;99902.66;10222303;29;20135;-74
2022/04/20 15:03:24;;;;;;;5.93;5.47;;;;;;;8.23;85.70;99904.06;10222440;29;20051;-74
2022/04/20 15:08:26;;;;;;;5.32;4.82;;;;;;;8.22;85.39;99902.34;10220556;29;20059;-73
2022/04/20 15:13:27;;;;;;;4.63;3.70;;;;;;;8.23;84.35;99901.44;10221800;29;20047;-73
2022/04/20 15:18:35;;;;;;;4.47;4.07;;;;;;;8.26;83.98;99896.13;10220925;29;20070;-73
2022/04/20 15:23:39;;;;;;;4.43;3.72;;;;;;;8.07;85.19;99898.34;10221929;29;20537;-72
2022/04/20 15:28:44;;;;;;;4.03;3.72;;;;;;;8.20;84.87;99896.28;10206157;29;20501;-73
2022/04/20 15:33:46;;;;;;;4.45;4.05;;;;;;;7.97;85.90;99896.81;10223452;29;20565;-73
2022/04/20 15:38:49;;;;;;;4.57;4.18;;;;;;;7.79;87.58;99891.13;10221695;29;20043;-73
2022/04/20 15:43:50;;;;;;;4.40;4.00;;;;;;;7.96;87.39;99900.34;10221566;29;20103;-75
2022/04/20 15:48:52;;;;;;;4.63;4.32;;;;;;;7.68;89.69;99906.19;10221769;29;20050;-73
2022/04/20 15:53:54;;;;;;;3.85;3.55;;;;;;;7.88;88.51;99900.53;10220571;29;20062;-73
2022/04/20 16:04:15;;;;;;;2.10;2.00;;;;;;;7.99;85.23;99898.50;10220232;29;20513;-74
2022/04/20 16:09:17;;;;;;;2.80;2.15;;;;;;;7.94;84.40;99894.28;10220928;29;20044;-73
2022/04/20 16:14:18;;;;;;;1.70;1.60;;;;;;;7.90;81.07;99892.63;10219579;29;20054;-73
2022/04/20 16:19:20;;;;;;;1.52;1.42;;;;;;;7.79;82.30;99887.63;10219542;29;20074;-74
2022/04/20 16:24:21;;;;;;;1.58;1.27;;;;;;;7.76;83.04;99890.34;10219893;29;20048;-74
2022/04/20 16:29:23;;;;;;;2.20;2.00;;;;;;;7.88;83.82;99884.84;10219098;29;20066;-74
2022/04/20 16:34:26;;;;;;;2.53;1.90;;;;;;;7.75;84.02;99891.25;10216875;29;20087;-74
2022/04/20 16:39:27;;;;;;;2.67;1.88;;;;;;;7.64;84.62;99885.38;10218390;29;20050;-74
2022/04/20 16:44:30;;;;;;;2.28;2.08;;;;;;;7.55;86.77;99882.06;10185019;29;20110;-74
2022/04/20 16:49:31;;;;;;;2.63;2.42;;;;;;;7.55;87.90;99870.75;10217208;29;20458;-74
2022/04/20 16:54:33;;;;;;;2.60;2.40;;;;;;;7.51;88.65;99867.31;10217938;29;20044;-74
2022/04/20 16:59:35;;;;;;;3.15;2.95;;;;;;;7.55;90.02;99871.59;10218072;29;20504;-74
2022/04/20 17:04:38;;;;;;;3.13;2.92;;;;;;;7.41;90.34;99878.03;10216618;29;20057;-74
2022/04/20 17:09:39;;;;;;;4.15;3.78;;;;;;;7.41;91.35;99870.19;10216719;29;20052;-74
2022/04/20 17:14:41;;;;;;;5.43;4.93;;;;;;;7.49;90.97;99870.88;10215886;29;20055;-74
2022/04/20 17:19:43;;;;;;;5.07;4.57;;;;;;;7.74;88.44;99865.94;10216423;29;20058;-75
2022/04/20 17:30:05;;;;;;;3.40;3.10;;;;;;;7.79;86.69;99872.81;10216044;29;20498;-75
2022/04/20 17:40:34;;;;;;;6.18;2.35;;;;;;;7.74;84.83;99864.19;10214565;29;20047;-74
2022/04/20 17:45:36;;;;;;;3.55;2.58;;;;;;;7.50;87.32;99864.75;10214584;29;20099;-75
2022/04/20 17:50:38;;;;;;;2.65;2.45;;;;;;;7.58;86.69;99863.69;10215237;29;20040;-74
2022/04/20 17:55:40;;;;;;;3.33;3.03;;;;;;;7.43;87.98;99869.25;10215150;29;20047;-74
2022/04/20 18:00:43;;;;;;;3.90;2.65;;;;;;;7.33;88.88;99865.13;10216429;29;20368;-74
2022/04/20 18:05:44;;;;;;;3.10;2.33;;;;;;;7.52;87.21;99860.34;10199086;29;20047;-74
2022/04/20 18:10:46;;;;;;;4.32;2.00;;;;;;;7.73;84.44;99866.84;10199601;29;20052;-75
2022/04/20 18:15:48;;;;;;;2.60;2.38;;;;;;;7.57;85.96;99863.75;10216576;29;20454;-75
2022/04/20 18:20:50;;;;;;;2.72;2.53;;;;;;;7.56;85.43;99862.00;10214043;29;20097;-75
2022/04/20 18:25:52;;;;;;;4.45;4.05;;;;;;;7.32;87.31;99853.78;10220815;29;20490;-74
2022/04/20 18:30:53;;;;;;;3.35;3.00;;;;;;;7.34;88.08;99849.38;10224346;29;20047;-74
2022/04/20 18:35:55;;;;;;;2.90;2.70;;;;;;;7.46;88.34;99844.78;10238286;29;20047;-74
2022/04/20 18:40:58;;;;;;;3.58;3.28;;;;;;;7.31;89.23;99848.59;10265736;29;20086;-75
2022/04/20 18:46:00;;;;;;;7.97;7.28;;;;;;;7.10;91.78;99846.44;10224339;29;20177;-75
2022/04/20 18:51:01;;;;;;;3.80;3.50;;;;;;;7.26;88.84;99847.81;10224918;29;20055;-74
2022/04/20 19:01:24;;;;;;;3.38;3.05;;;;;;;7.08;90.57;99844.72;10224435;29;20413;-74
2022/04/20 19:06:25;;;;;;;4.10;3.17;;;;;;;7.17;90.22;99834.94;10221291;29;20044;-74
2022/04/20 19:11:27;;;;;;;3.92;2.65;;;;;;;7.26;89.25;99842.59;10223621;29;20499;-74
2022/04/20 19:16:30;;;;;;;3.42;3.22;;;;;;;7.29;89.17;99840.78;10222039;29;20067;-75
2022/04/20 19:21:32;;;;;;;3.47;3.20;;;;;;;7.06;90.98;99840.41;10223633;29;20494;-74
2022/04/20 19:26:36;;;;;;;3.90;3.60;;;;;;;7.16;90.83;99825.38;10224229;29;20103;-75
2022/04/20 19:31:38;;;;;;;5.07;4.65;;;;;;;7.25;91.45;99826.03;10224992;29;20058;-74
2022/04/20 19:36:40;;;;;;;4.93;4.53;;;;;;;7.10;92.15;99825.53;10206681;29;20051;-74
2022/04/20 19:41:42;;;;;;;4.75;4.35;;;;;;;7.08;92.54;99821.19;10223672;29;20379;-74
2022/04/20 19:46:44;;;;;;;5.65;5.07;;;;;;;7.32;90.89;99816.34;10225539;29;20051;-76
2022/04/20 19:51:46;;;;;;;4.88;4.47;;;;;;;7.21;92.13;99819.16;10223365;29;20501;-76
2022/04/20 19:56:48;;;;;;;6.50;6.00;;;;;;;7.30;90.21;99810.25;10222886;29;20051;-74
2022/04/20 20:01:50;;;;;;;6.78;6.22;;;;;;;7.21;91.36;99811.31;10223778;29;20466;-74
2022/04/20 20:06:52;;;;;;;6.25;5.75;;;;;;;7.37;90.09;99805.78;10222769;29;20047;-75
2022/04/20 20:11:54;;;;;;;6.45;5.85;;;;;;;7.26;90.69;99799.03;10222665;29;20047;-74
2022/04/20 20:16:58;;;;;;;5.65;5.18;;;;;;;7.45;88.94;99798.63;10224229;29;20558;-75
2022/04/20 20:22:00;;;;;;;4.50;4.20;;;;;;;7.25;89.55;99801.66;10223885;29;20059;-75
2022/04/20 20:32:22;;;;;;;4.78;4.25;;;;;;;7.14;90.94;99798.44;10223874;29;20119;-74
2022/04/20 20:37:24;;;;;;;5.07;4.63;;;;;;;7.06;91.56;99794.22;10224820;29;20044;-74
2022/04/20 20:42:25;;;;;;;4.43;4.10;;;;;;;7.11;90.65;99785.44;10223692;29;20078;-75
2022/04/20 20:47:27;;;;;;;4.45;4.15;;;;;;;7.00;92.65;99781.28;10219910;29;20055;-75
2022/04/20 20:52:34;;;;;;;4.72;4.43;;;;;;;7.07;92.31;99780.25;10220111;29;20044;-75
2022/04/20 20:57:36;;;;;;;4.65;4.25;;;;;;;6.98;93.64;99770.00;10220713;29;20103;-74
2022/04/20 21:02:38;;;;;;;6.05;4.28;;;;;;;6.88;93.55;99773.72;10219819;29;20052;-74
2022/04/20 21:07:46;;;;;;;7.53;4.60;;;;;;;6.94;93.43;99772.72;10220764;29;20486;-75
2022/04/20 21:12:48;;;;;;;5.22;4.45;;;;;;;7.11;92.46;99756.66;10219601;29;20052;-75
2022/04/20 21:17:50;;;;;;;5.15;4.75;;;;;;;7.21;91.86;99761.66;10221277;29;20059;-74
2022/04/20 21:22:51;;;;;;;5.25;4.72;;;;;;;7.01;92.41;99756.88;10206160;29;20054;-74
2022/04/20 21:27:53;;;;;;;6.22;5.72;;;;;;;6.95;93.12;99759.63;10219204;29;20048;-75
2022/04/20 21:32:55;;;;;;;6.00;5.50;;;;;;;6.96;93.58;99761.34;10223491;29;20055;-74
2022/04/20 21:37:56;;;;;;;4.65;4.25;;;;;;;7.16;92.61;99767.88;10222973;29;20043;-74
2022/04/20 21:42:58;;;;;;;4.90;4.22;;;;;;;6.99;93.74;99763.88;10222295;29;20138;-74
2022/04/20 21:48:00;;;;;;;5.22;4.82;;;;;;;6.97;92.96;99756.97;10222344;29;20048;-75
2022/04/20 21:53:03;;;;;;;5.32;4.90;;;;;;;7.26;90.96;99764.16;10221387;29;20055;-76
2022/04/20 21:58:05;;;;;;;6.45;5.95;;;;;;;7.00;92.29;99760.38;10223474;29;20072;-75
2022/04/20 22:08:34;;;;;;;4.90;4.53;;;;;;;7.18;90.17;99761.75;10229045;29;20462;-74
2022/04/20 22:13:36;;;;;;;4.85;4.45;;;;;;;7.05;91.43;99760.28;10228040;29;20051;-74
2022/04/20 22:18:39;;;;;;;4.70;4.30;;;;;;;7.19;90.41;99762.59;10229525;29;20115;-75
2022/04/20 22:23:40;;;;;;;5.40;4.38;;;;;;;7.17;91.36;99766.97;10230743;29;20060;-76
2022/04/20 22:28:42;;;;;;;4.88;4.38;;;;;;;7.11;91.36;99762.75;10225927;29;20103;-75
2022/04/20 22:33:44;;;;;;;4.93;4.40;;;;;;;7.01;92.03;99759.50;10227294;29;20055;-75
2022/04/20 22:38:45;;;;;;;4.68;4.28;;;;;;;7.01;92.00;99756.88;10226513;29;20068;-75
2022/04/20 22:43:47;;;;;;;6.13;4.70;;;;;;;7.00;92.49;99763.00;10225664;29;20048;-75
2022/04/20 22:48:49;;;;;;;4.93;4.53;;;;;;;6.99;92.47;99765.63;10229156;29;20510;-74
2022/04/20 22:53:51;;;;;;;5.07;4.60;;;;;;;7.04;92.41;99761.19;10228278;29;20151;-75
2022/04/20 22:58:52;;;;;;;6.65;6.00;;;;;;;7.06;91.53;99751.53;10229083;29;20103;-75
2022/04/20 23:03:54;;;;;;;5.45;4.95;;;;;;;6.97;92.60;99755.22;10230049;29;20078;-75
2022/04/20 23:08:56;;;;;;;5.88;5.47;;;;;;;7.24;91.07;99751.13;10228120;29;20048;-75
2022/04/20 23:13:59;;;;;;;5.47;5.07;;;;;;;7.10;90.88;99749.72;10227920;29;20146;-74
2022/04/20 23:19:01;;;;;;;5.30;4.88;;;;;;;7.41;88.43;99748.13;10228037;29;20061;-74
2022/04/20 23:24:03;;;;;;;5.50;5.03;;;;;;;7.40;88.32;99756.88;10227451;29;20071;-75
2022/04/20 23:29:05;;;;;;;6.03;5.63;;;;;;;7.21;90.20;99758.19;10227022;29;20131;-75
2022/04/20 23:34:06;;;;;;;6.13;5.68;;;;;;;7.15;91.13;99747.88;10231285;29;20054;-75
2022/04/20 23:39:08;;;;;;;6.18;5.70;;;;;;;7.05;91.92;99750.69;10229490;29;20050;-75
2022/04/20 23:44:10;;;;;;;7.63;6.97;;;;;;;7.04;91.83;99748.97;10228455;29;20051;-75
2022/04/20 23:49:12;;;;;;;6.60;6.10;;;;;;;6.93;92.74;99743.09;10227742;29;20051;-76
2022/04/20 23:54:14;;;;;;;8.05;7.38;;;;;;;6.95;93.57;99737.84;10227505;29;20044;-75
2022/04/20 23:59:16;;;;;;;7.63;6.65;;;;;;;6.88;93.51;99739.75;10228807;29;20044;-74
